Benguela Stream — PENR — position and weather

sailwx.info

Track history (hours):
 
Tides and Currents Weather Stations Pressure Air Temp Water Temp Dewpoint Dewpoint Depression Visibility Wind Speed Wind Dir Waves Ship Positions

Benguela Stream

Last reported at 2016-May-03 00:00 UTC. Time now 2016-May-04 19:20 UTC.
Position N 28°30' W 047°54'.

Length 150 m; beam 13 m.

Type: Cargo ship. MMSI: 244455000.

Wind from 060 at 10 knots

Waves 0.5 meters (2 feet), 6 second period

Barometer 1022.0 mb
Air temperature 22.8 ° C
Visibility: greater than 10.8 NM
Dewpoint 22.4 ° C

Date/timePositionNaut miles runAvg speedWind from/ knotsBaromVisibWave heightAir tempDewpointWater temp
2016-May-03 00:00N 28°30' W 047°54'46918.7 060 / 101022.010.8 0.522.822.4
2016-May-01 23:00N 33°54' W 041°18'   130 / 151024.0 5.4 1.520.520.0
2016-Apr-28 00:29N 49°52' W 003°38'1920.0
2016-Apr-27 23:33N 49°57' W 003°10'2019.1
2016-Apr-27 22:30N 50°02' W 002°40'6218.7
2016-Apr-27 19:12N 49°50' W 001°06'1421.5
2016-Apr-27 18:33N 49°44' W 000°47'2121.4
2016-Apr-27 17:34N 49°35' W 000°17'1514.7
2016-Apr-27 16:34N 49°29' E 000°04'3 3.4
2016-Apr-27 15:32N 49°28' E 000°09'0 0.0
2016-Apr-27 14:32N 49°28' E 000°09'0 0.0
2016-Apr-27 13:32N 49°28' E 000°09'0 0.0
2016-Apr-27 12:32N 49°28' E 000°09'0 0.0
2016-Apr-27 11:32N 49°28' E 000°09'0 0.0
2016-Apr-27 10:32N 49°28' E 000°09'1 1.4
2016-Apr-27 09:33N 49°29' E 000°07'1111.4
2016-Apr-27 08:34N 49°32' W 000°10'1918.7
2016-Apr-27 07:33N 49°49' W 000°23'3818.9
2016-Apr-27 05:33N 50°23' W 000°49'1717.1
2016-Apr-27 04:33N 50°39' W 000°59'10 9.6
2016-Apr-27 03:33N 50°47' W 001°06'2 1.6
2016-Apr-27 02:32N 50°49' W 001°05'0 0.0
2016-Apr-27 01:32N 50°49' W 001°05'0 0.0
2016-Apr-27 00:32N 50°49' W 001°05'0 0.0
2016-Apr-26 23:32N 50°49' W 001°05'0 0.0
2016-Apr-26 22:32N 50°49' W 001°05'0 0.0
2016-Apr-26 21:32N 50°49' W 001°05'0 0.0
2016-Apr-26 20:32N 50°49' W 001°05'0 0.0
2016-Apr-26 19:32N 50°49' W 001°05'0 0.0
2016-Apr-26 18:32N 50°49' W 001°05'0 0.0
2016-Apr-26 17:32N 50°49' W 001°05'0 0.0
2016-Apr-26 16:32N 50°49' W 001°05'0 0.0
2016-Apr-26 15:32N 50°49' W 001°05'0 0.0
2016-Apr-26 14:32N 50°49' W 001°05'0 0.0
2016-Apr-26 13:32N 50°49' W 001°05'0 0.0
2016-Apr-26 12:32N 50°49' W 001°05'0 0.0
2016-Apr-26 11:32N 50°49' W 001°05'0 0.0
2016-Apr-26 10:32N 50°49' W 001°05'0 0.0
2016-Apr-26 09:32N 50°49' W 001°05'0 0.0
2016-Apr-26 08:32N 50°49' W 001°05'0 0.0
2016-Apr-26 07:32N 50°49' W 001°05'0 0.0
2016-Apr-26 06:32N 50°49' W 001°05'0 0.0
2016-Apr-26 05:32N 50°49' W 001°05'0 0.0
2016-Apr-26 04:32N 50°49' W 001°05'0 0.0
2016-Apr-26 03:32N 50°49' W 001°05'0 0.0
2016-Apr-26 02:32N 50°49' W 001°05'0 0.0
2016-Apr-26 01:32N 50°49' W 001°05'0 0.0
2016-Apr-26 00:32N 50°49' W 001°05'0 0.0
2016-Apr-25 23:32N 50°49' W 001°05'0 0.0
2016-Apr-25 22:32N 50°49' W 001°05'0 0.0
2016-Apr-25 21:32N 50°49' W 001°05'0 0.0
2016-Apr-25 20:32N 50°49' W 001°05'0 0.0
2016-Apr-25 19:32N 50°49' W 001°05'0 0.0
2016-Apr-25 18:32N 50°49' W 001°05'0 0.0
2016-Apr-25 17:32N 50°49' W 001°05'0 0.0
2016-Apr-25 16:32N 50°49' W 001°05'0 0.0
2016-Apr-25 15:32N 50°49' W 001°05'0 0.0
2016-Apr-25 14:32N 50°49' W 001°05'0 0.0
2016-Apr-25 13:32N 50°49' W 001°05'0 0.0
2016-Apr-25 12:32N 50°49' W 001°05'0 0.0
2016-Apr-25 11:32N 50°49' W 001°05'0 0.0
2016-Apr-25 10:32N 50°49' W 001°05'0 0.0
2016-Apr-25 09:32N 50°49' W 001°05'0 0.0
2016-Apr-25 08:32N 50°49' W 001°05'0 0.0
2016-Apr-25 07:32N 50°49' W 001°05'0 0.0
2016-Apr-25 06:32N 50°49' W 001°05'0 0.0
2016-Apr-25 05:32N 50°49' W 001°05'0 0.0
2016-Apr-25 04:32N 50°49' W 001°05'0 0.0
2016-Apr-25 03:32N 50°49' W 001°05'0 0.0
2016-Apr-25 02:32N 50°49' W 001°05'0 0.0
2016-Apr-25 01:32N 50°49' W 001°05'0 0.0
2016-Apr-25 00:32N 50°49' W 001°05'0 0.0
2016-Apr-24 23:32N 50°49' W 001°05'0 0.2
2016-Apr-24 22:34N 50°49' W 001°06'5 5.1
2016-Apr-24 21:33N 50°44' W 001°03'9 9.4
2016-Apr-24 20:33N 50°36' W 000°55'7 7.1
2016-Apr-24 19:33N 50°29' W 000°51'6 6.2
2016-Apr-24 18:33N 50°30' W 001°01'1717.3
2016-Apr-24 17:33N 50°28' W 001°28'4916.4
2016-Apr-24 14:34N 50°15' W 002°42'1716.9
2016-Apr-24 13:33N 50°10' W 003°08'1717.4
2016-Apr-24 12:33N 50°06' W 003°34'1817.6
2016-Apr-24 11:33N 50°01' W 004°00'1817.9
2016-Apr-24 10:33N 49°57' W 004°27'1817.9
2016-Apr-24 09:33N 49°52' W 004°54'1818.1
2016-Apr-24 08:33N 49°47' W 005°21'  
Track history (hours):
 
Tides and Currents Weather Stations Pressure Air Temp Water Temp Dewpoint Dewpoint Depression Visibility Wind Speed Wind Dir Waves Ship Positions

Benguela Stream

Last reported at 2016-May-03 00:00 UTC. Time now 2016-May-04 19:20 UTC.
Position N 28°30' W 047°54'.

Length 150 m; beam 13 m.

Type: Cargo ship. MMSI: 244455000.

Wind from 060 at 10 knots

Waves 0.5 meters (2 feet), 6 second period

Barometer 1022.0 mb
Air temperature 22.8 ° C
Visibility: greater than 10.8 NM
Dewpoint 22.4 ° C

Date/timePositionNaut miles runAvg speedWind from/ knotsBaromVisibWave heightAir tempDewpointWater temp
2016-May-03 00:00N 28°30' W 047°54'46918.7 060 / 101022.010.8 0.522.822.4
2016-May-01 23:00N 33°54' W 041°18'   130 / 151024.0 5.4 1.520.520.0
2016-Apr-28 00:29N 49°52' W 003°38'1920.0
2016-Apr-27 23:33N 49°57' W 003°10'2019.1
2016-Apr-27 22:30N 50°02' W 002°40'6218.7
2016-Apr-27 19:12N 49°50' W 001°06'1421.5
2016-Apr-27 18:33N 49°44' W 000°47'2121.4
2016-Apr-27 17:34N 49°35' W 000°17'1514.7
2016-Apr-27 16:34N 49°29' E 000°04'3 3.4
2016-Apr-27 15:32N 49°28' E 000°09'0 0.0
2016-Apr-27 14:32N 49°28' E 000°09'0 0.0
2016-Apr-27 13:32N 49°28' E 000°09'0 0.0
2016-Apr-27 12:32N 49°28' E 000°09'0 0.0
2016-Apr-27 11:32N 49°28' E 000°09'0 0.0
2016-Apr-27 10:32N 49°28' E 000°09'1 1.4
2016-Apr-27 09:33N 49°29' E 000°07'1111.4
2016-Apr-27 08:34N 49°32' W 000°10'1918.7
2016-Apr-27 07:33N 49°49' W 000°23'3818.9
2016-Apr-27 05:33N 50°23' W 000°49'1717.1
2016-Apr-27 04:33N 50°39' W 000°59'10 9.6
2016-Apr-27 03:33N 50°47' W 001°06'2 1.6
2016-Apr-27 02:32N 50°49' W 001°05'0 0.0
2016-Apr-27 01:32N 50°49' W 001°05'0 0.0
2016-Apr-27 00:32N 50°49' W 001°05'0 0.0
2016-Apr-26 23:32N 50°49' W 001°05'0 0.0
2016-Apr-26 22:32N 50°49' W 001°05'0 0.0
2016-Apr-26 21:32N 50°49' W 001°05'0 0.0
2016-Apr-26 20:32N 50°49' W 001°05'0 0.0
2016-Apr-26 19:32N 50°49' W 001°05'0 0.0
2016-Apr-26 18:32N 50°49' W 001°05'0 0.0
2016-Apr-26 17:32N 50°49' W 001°05'0 0.0
2016-Apr-26 16:32N 50°49' W 001°05'0 0.0
2016-Apr-26 15:32N 50°49' W 001°05'0 0.0
2016-Apr-26 14:32N 50°49' W 001°05'0 0.0
2016-Apr-26 13:32N 50°49' W 001°05'0 0.0
2016-Apr-26 12:32N 50°49' W 001°05'0 0.0
2016-Apr-26 11:32N 50°49' W 001°05'0 0.0
2016-Apr-26 10:32N 50°49' W 001°05'0 0.0
2016-Apr-26 09:32N 50°49' W 001°05'0 0.0
2016-Apr-26 08:32N 50°49' W 001°05'0 0.0
2016-Apr-26 07:32N 50°49' W 001°05'0 0.0
2016-Apr-26 06:32N 50°49' W 001°05'0 0.0
2016-Apr-26 05:32N 50°49' W 001°05'0 0.0
2016-Apr-26 04:32N 50°49' W 001°05'0 0.0
2016-Apr-26 03:32N 50°49' W 001°05'0 0.0
2016-Apr-26 02:32N 50°49' W 001°05'0 0.0
2016-Apr-26 01:32N 50°49' W 001°05'0 0.0
2016-Apr-26 00:32N 50°49' W 001°05'0 0.0
2016-Apr-25 23:32N 50°49' W 001°05'0 0.0
2016-Apr-25 22:32N 50°49' W 001°05'0 0.0
2016-Apr-25 21:32N 50°49' W 001°05'0 0.0
2016-Apr-25 20:32N 50°49' W 001°05'0 0.0
2016-Apr-25 19:32N 50°49' W 001°05'0 0.0
2016-Apr-25 18:32N 50°49' W 001°05'0 0.0
2016-Apr-25 17:32N 50°49' W 001°05'0 0.0
2016-Apr-25 16:32N 50°49' W 001°05'0 0.0
2016-Apr-25 15:32N 50°49' W 001°05'0 0.0
2016-Apr-25 14:32N 50°49' W 001°05'0 0.0
2016-Apr-25 13:32N 50°49' W 001°05'0 0.0
2016-Apr-25 12:32N 50°49' W 001°05'0 0.0
2016-Apr-25 11:32N 50°49' W 001°05'0 0.0
2016-Apr-25 10:32N 50°49' W 001°05'0 0.0
2016-Apr-25 09:32N 50°49' W 001°05'0 0.0
2016-Apr-25 08:32N 50°49' W 001°05'0 0.0
2016-Apr-25 07:32N 50°49' W 001°05'0 0.0
2016-Apr-25 06:32N 50°49' W 001°05'0 0.0
2016-Apr-25 05:32N 50°49' W 001°05'0 0.0
2016-Apr-25 04:32N 50°49' W 001°05'0 0.0
2016-Apr-25 03:32N 50°49' W 001°05'0 0.0
2016-Apr-25 02:32N 50°49' W 001°05'0 0.0
2016-Apr-25 01:32N 50°49' W 001°05'0 0.0
2016-Apr-25 00:32N 50°49' W 001°05'0 0.0
2016-Apr-24 23:32N 50°49' W 001°05'0 0.2
2016-Apr-24 22:34N 50°49' W 001°06'5 5.1
2016-Apr-24 21:33N 50°44' W 001°03'9 9.4
2016-Apr-24 20:33N 50°36' W 000°55'7 7.1
2016-Apr-24 19:33N 50°29' W 000°51'6 6.2
2016-Apr-24 18:33N 50°30' W 001°01'1717.3
2016-Apr-24 17:33N 50°28' W 001°28'4916.4
2016-Apr-24 14:34N 50°15' W 002°42'1716.9
2016-Apr-24 13:33N 50°10' W 003°08'1717.4
2016-Apr-24 12:33N 50°06' W 003°34'1817.6
2016-Apr-24 11:33N 50°01' W 004°00'1817.9
2016-Apr-24 10:33N 49°57' W 004°27'1817.9
2016-Apr-24 09:33N 49°52' W 004°54'1818.1
2016-Apr-24 08:33N 49°47' W 005°21'  

Dump ship's entire track history